Time;durP1;ratioP1;P1;durP2;ratioP2;P2;SDS_P1;SDS_P2;PMS_P1;PMS_P2;Temp;Humidity;BMP_temperature;BMP_pressure;BME280_temperature;BME280_humidity;BME280_pressure;Samples;Min_cycle;Max_cycle;Signal;HPM_P1;HPM_P2
2023/09/21 00:00:10;;;;;;;0.80;0.30;;;;;;;-143.84;81.38;45106.19;5090326;28;20486;-60
2023/09/21 00:02:37;;;;;;;0.80;0.30;;;;;;;-143.84;81.13;45096.66;5090335;28;20444;-60
2023/09/21 00:05:06;;;;;;;0.80;0.30;;;;;;;-143.84;81.01;45111.91;5090238;28;20544;-60
2023/09/21 00:07:36;;;;;;;0.80;0.40;;;;;;;-143.84;81.18;45085.25;5090155;28;20527;-60
2023/09/21 00:10:05;;;;;;;0.80;0.30;;;;;;;-143.84;81.01;45083.34;5090285;28;20471;-60
2023/09/21 00:12:34;;;;;;;0.80;0.40;;;;;;;-143.84;81.17;45094.78;5090134;28;21327;-60
2023/09/21 00:15:06;;;;;;;0.80;0.30;;;;;;;-143.84;81.21;45106.19;5090206;28;20523;-60
2023/09/21 00:17:33;;;;;;;0.80;0.30;;;;;;;-143.84;81.08;45070.00;5089906;28;20522;-60
2023/09/21 00:20:10;;;;;;;0.80;0.30;;;;;;;-143.84;81.38;45117.63;5089808;28;20487;-60
2023/09/21 00:22:37;;;;;;;0.80;0.40;;;;;;;-143.84;81.35;45104.28;5090310;28;20451;-60
2023/09/21 00:25:09;;;;;;;0.80;0.50;;;;;;;-143.84;81.48;45108.09;5089780;28;20505;-60
2023/09/21 00:27:37;;;;;;;0.80;0.40;;;;;;;-143.84;81.47;45102.38;5090073;28;20443;-60
2023/09/21 00:30:06;;;;;;;0.80;0.30;;;;;;;-143.84;81.50;45092.88;5089841;28;20444;-60
2023/09/21 00:32:39;;;;;;;0.80;0.30;;;;;;;-143.84;81.52;45075.72;5089864;28;20467;-60
2023/09/21 00:35:09;;;;;;;0.80;0.30;;;;;;;-143.84;81.40;45110.00;5089767;28;20447;-60
2023/09/21 00:37:38;;;;;;;0.80;0.30;;;;;;;-143.84;81.44;45096.66;5089681;28;21027;-60
2023/09/21 00:40:19;;;;;;;0.80;0.40;;;;;;;-143.84;81.51;45098.56;5089468;28;20483;-60
2023/09/21 00:42:46;;;;;;;0.80;0.30;;;;;;;-143.84;81.64;45079.53;5089682;28;20945;-60
2023/09/21 00:45:15;;;;;;;0.80;0.40;;;;;;;-143.84;81.91;45096.66;5089650;28;20512;-60
2023/09/21 00:47:45;;;;;;;0.80;0.40;;;;;;;-143.84;81.76;45096.66;5089607;28;20500;-60
2023/09/21 00:50:13;;;;;;;0.80;0.30;;;;;;;-143.84;81.95;45090.97;5089451;28;20493;-60
2023/09/21 00:52:42;;;;;;;0.80;0.30;;;;;;;-143.84;81.93;45108.09;5089194;28;20452;-60
2023/09/21 00:55:11;;;;;;;0.80;0.30;;;;;;;-143.84;82.06;45104.28;5089184;28;20449;-60
2023/09/21 00:57:40;;;;;;;0.80;0.40;;;;;;;-143.84;82.19;45127.13;5089274;28;21161;-60
2023/09/21 01:00:13;;;;;;;0.80;0.30;;;;;;;-143.84;82.19;45100.47;5089556;28;20467;-60
2023/09/21 01:02:50;;;;;;;0.80;0.40;;;;;;;-143.84;82.19;45100.47;5089247;28;20440;-60
2023/09/21 01:05:18;;;;;;;0.80;0.30;;;;;;;-143.84;82.18;45094.78;5089165;28;20450;-60
2023/09/21 01:07:48;;;;;;;0.80;0.40;;;;;;;-143.84;82.27;45102.38;5089194;28;20964;-60
2023/09/21 01:10:19;;;;;;;0.80;0.40;;;;;;;-143.84;82.40;45117.63;5088184;28;20948;-60
2023/09/21 01:12:49;;;;;;;0.80;0.30;;;;;;;-143.84;82.48;45094.78;5089212;28;20501;-60
2023/09/21 01:15:17;;;;;;;0.80;0.40;;;;;;;-143.84;82.61;45123.34;5088975;28;20968;-60
2023/09/21 01:17:46;;;;;;;0.80;0.40;;;;;;;-143.84;82.79;45111.91;5088783;28;20450;-60
2023/09/21 01:20:16;;;;;;;0.80;0.40;;;;;;;-143.84;82.94;45117.63;5088838;28;20528;-60
2023/09/21 01:22:51;;;;;;;0.80;0.30;;;;;;;-143.84;82.87;45129.03;5088914;28;20440;-60
2023/09/21 01:25:20;;;;;;;0.80;0.30;;;;;;;-143.84;83.02;45108.09;5088763;28;20444;-60
2023/09/21 01:27:51;;;;;;;0.80;0.30;;;;;;;-143.84;83.13;45119.53;5089175;28;20467;-60
2023/09/21 01:30:18;;;;;;;0.80;0.33;;;;;;;-143.84;83.06;45123.34;5088521;28;20444;-60
2023/09/21 01:32:48;;;;;;;0.80;0.30;;;;;;;-143.84;83.04;45106.19;5088457;28;20505;-60
2023/09/21 01:35:16;;;;;;;0.80;0.40;;;;;;;-143.84;83.11;45108.09;5088664;28;20501;-60
2023/09/21 01:37:45;;;;;;;0.80;0.30;;;;;;;-143.84;83.17;45102.38;5088748;28;20447;-60
2023/09/21 01:40:16;;;;;;;0.80;0.40;;;;;;;-143.84;83.38;45117.63;5088228;28;20870;-60
2023/09/21 01:42:48;;;;;;;0.80;0.40;;;;;;;-143.84;83.53;45089.06;5088455;28;20436;-60
2023/09/21 01:45:16;;;;;;;0.80;0.30;;;;;;;-143.84;83.52;45108.09;5088580;28;20578;-60
2023/09/21 01:47:43;;;;;;;0.80;0.30;;;;;;;-143.84;83.69;45115.72;5088791;28;20447;-60
2023/09/21 01:50:14;;;;;;;0.80;0.30;;;;;;;-143.84;83.57;45125.22;5088734;28;20498;-60
2023/09/21 01:52:42;;;;;;;0.80;0.40;;;;;;;-143.84;83.69;45132.84;5088861;28;20442;-60
2023/09/21 01:55:10;;;;;;;0.80;0.30;;;;;;;-143.84;83.96;45102.38;5088521;28;20933;-60
2023/09/21 01:57:38;;;;;;;0.80;0.40;;;;;;;-143.84;83.97;45094.78;5088460;28;20444;-60
2023/09/21 02:00:25;;;;;;;0.80;0.40;;;;;;;-143.84;84.12;45100.47;5088546;28;21024;-60
2023/09/21 02:02:52;;;;;;;0.80;0.30;;;;;;;-143.84;84.03;45123.34;5088509;28;20448;-60
2023/09/21 02:05:19;;;;;;;0.80;0.40;;;;;;;-143.84;84.14;45121.44;5088403;28;20539;-60
2023/09/21 02:07:47;;;;;;;0.80;0.40;;;;;;;-143.84;84.23;45132.84;5088489;28;20435;-60
2023/09/21 02:10:16;;;;;;;0.80;0.40;;;;;;;-143.84;84.57;45106.19;5088511;28;20949;-60
2023/09/21 02:12:56;;;;;;;0.80;0.40;;;;;;;-143.84;85.05;45096.66;5088331;28;20983;-60
2023/09/21 02:15:26;;;;;;;0.80;0.30;;;;;;;-143.84;85.58;45115.72;5088820;28;20453;-60
2023/09/21 02:17:55;;;;;;;0.80;0.40;;;;;;;-143.84;85.79;45123.34;5088499;28;20495;-60
2023/09/21 02:20:23;;;;;;;0.80;0.40;;;;;;;-143.84;86.06;45170.94;5089413;28;20530;-60
2023/09/21 02:22:52;;;;;;;0.80;0.30;;;;;;;-143.84;86.17;45113.81;5092328;28;20522;-60
2023/09/21 02:25:20;;;;;;;0.80;0.30;;;;;;;-143.84;86.22;45110.00;5092012;28;20436;-60
2023/09/21 02:27:48;;;;;;;0.80;0.33;;;;;;;-143.84;86.31;45132.84;5092287;28;20440;-60
2023/09/21 02:30:17;;;;;;;0.80;0.40;;;;;;;-143.84;86.30;45127.13;5092144;28;20431;-60
2023/09/21 02:32:48;;;;;;;0.80;0.37;;;;;;;-143.84;86.28;45115.72;5092109;28;20570;-60
2023/09/21 02:35:16;;;;;;;0.80;0.40;;;;;;;-143.84;86.28;45119.53;5091714;28;20443;-60
2023/09/21 02:37:45;;;;;;;0.80;0.30;;;;;;;-143.84;86.11;45125.22;5091865;28;20953;-60
2023/09/21 02:40:17;;;;;;;0.80;0.33;;;;;;;-143.84;86.10;45115.72;5092186;28;20937;-60
2023/09/21 02:42:45;;;;;;;0.80;0.40;;;;;;;-143.84;85.63;45108.09;5092285;28;20439;-60
2023/09/21 02:45:13;;;;;;;0.80;0.30;;;;;;;-143.84;85.38;45111.91;5092121;28;20877;-60
2023/09/21 02:47:41;;;;;;;0.80;0.30;;;;;;;-143.84;85.29;45111.91;5091764;28;21032;-60
2023/09/21 02:50:21;;;;;;;0.80;0.30;;;;;;;-143.84;85.45;45117.63;5091793;28;20442;-60
2023/09/21 02:52:51;;;;;;;0.80;0.40;;;;;;;-143.84;85.72;45119.53;5091758;28;20452;-60
2023/09/21 02:55:20;;;;;;;0.80;0.30;;;;;;;-143.84;86.13;45125.22;5092049;28;20447;-59
2023/09/21 02:57:49;;;;;;;0.80;0.30;;;;;;;-143.84;86.43;45132.84;5091854;28;20954;-60
2023/09/21 03:00:27;;;;;;;0.80;0.50;;;;;;;-143.84;86.64;45117.63;5091633;28;20440;-60
2023/09/21 03:02:56;;;;;;;0.80;0.37;;;;;;;-143.84;86.91;45092.88;5090765;28;20452;-60
2023/09/21 03:05:26;;;;;;;0.80;0.40;;;;;;;-143.84;86.68;45111.91;5090805;28;20518;-60
2023/09/21 03:07:54;;;;;;;0.80;0.40;;;;;;;-143.84;86.57;45100.47;5090885;28;20454;-59
2023/09/21 03:10:22;;;;;;;0.80;0.40;;;;;;;-143.84;86.65;45119.53;5090967;28;20450;-60
2023/09/21 03:12:51;;;;;;;0.80;0.40;;;;;;;-143.84;86.67;45110.00;5090907;28;20451;-60
2023/09/21 03:15:22;;;;;;;0.80;0.30;;;;;;;-143.84;86.77;45117.63;5090818;28;20480;-60
2023/09/21 03:17:53;;;;;;;0.80;0.30;;;;;;;-143.84;86.62;45121.44;5090952;28;20459;-60
2023/09/21 03:20:32;;;;;;;0.80;0.33;;;;;;;-143.84;86.37;45113.81;5090589;28;20465;-60
2023/09/21 03:23:05;;;;;;;0.80;0.30;;;;;;;-143.84;86.32;45115.72;5073959;28;20453;-60
2023/09/21 03:25:33;;;;;;;0.80;0.40;;;;;;;-143.84;86.35;45096.66;5071108;28;20772;-60
2023/09/21 03:28:07;;;;;;;0.80;0.40;;;;;;;-143.84;86.32;45108.09;5070768;28;20459;-60
2023/09/21 03:30:34;;;;;;;0.80;0.30;;;;;;;-143.84;86.29;45106.19;5071087;28;20961;-60
2023/09/21 03:33:01;;;;;;;0.80;0.30;;;;;;;-143.84;86.44;45108.09;5069855;28;21014;-60
2023/09/21 03:35:29;;;;;;;0.80;0.30;;;;;;;-143.84;86.36;45115.72;5070801;28;20433;-60
2023/09/21 03:37:56;;;;;;;0.80;0.40;;;;;;;-143.84;86.51;45121.44;5070729;28;20444;-60
2023/09/21 03:40:25;;;;;;;0.80;0.30;;;;;;;-143.84;86.63;45110.00;5070394;28;20449;-60
2023/09/21 03:42:54;;;;;;;0.80;0.30;;;;;;;-143.84;86.36;45142.38;5070940;28;20481;-60
2023/09/21 03:45:24;;;;;;;0.80;0.40;;;;;;;-143.84;86.20;45117.63;5070418;28;20444;-60
2023/09/21 03:47:51;;;;;;;0.80;0.40;;;;;;;-143.84;86.39;45100.47;5070842;28;20472;-60
2023/09/21 03:50:19;;;;;;;0.80;0.30;;;;;;;-143.84;86.29;45129.03;5079731;28;20448;-60
2023/09/21 03:52:47;;;;;;;0.80;0.33;;;;;;;-143.84;86.34;45092.88;5090515;28;20442;-60
2023/09/21 03:55:16;;;;;;;0.80;0.40;;;;;;;-143.84;86.50;45121.44;5090517;28;20447;-60
2023/09/21 03:57:46;;;;;;;0.80;0.40;;;;;;;-143.84;86.59;45106.19;5090418;28;20436;-60
2023/09/21 04:00:29;;;;;;;0.80;0.40;;;;;;;-143.84;86.54;45123.34;5090316;28;20509;-60
2023/09/21 04:02:57;;;;;;;0.80;0.30;;;;;;;-143.84;86.43;45113.81;5090586;28;20440;-60
2023/09/21 04:05:26;;;;;;;0.80;0.30;;;;;;;-143.84;86.45;45096.66;5090247;28;20440;-60
2023/09/21 04:07:53;;;;;;;0.80;0.40;;;;;;;-143.84;86.48;45108.09;5090394;28;20436;-60
2023/09/21 04:10:20;;;;;;;0.80;0.30;;;;;;;-143.84;86.51;45123.34;5090125;28;20454;-60
2023/09/21 04:12:50;;;;;;;0.80;0.40;;;;;;;-143.84;86.59;45098.56;5090070;28;20436;-60
2023/09/21 04:15:18;;;;;;;0.80;0.40;;;;;;;-143.84;86.22;45121.44;5089980;28;20451;-60
2023/09/21 04:17:45;;;;;;;0.80;0.40;;;;;;;-143.84;86.37;45136.66;5089602;28;20455;-60
2023/09/21 04:20:14;;;;;;;0.80;0.40;;;;;;;-143.84;86.20;45102.38;5090064;28;20473;-60
2023/09/21 04:22:43;;;;;;;0.80;0.40;;;;;;;-143.84;86.46;45108.09;5089875;28;20562;-60
2023/09/21 04:25:11;;;;;;;0.80;0.40;;;;;;;-143.84;86.45;45102.38;5089910;28;20436;-60
2023/09/21 04:27:39;;;;;;;0.80;0.30;;;;;;;-143.84;86.34;45123.34;5089610;28;20440;-60
2023/09/21 04:30:09;;;;;;;0.80;0.30;;;;;;;-143.84;86.40;45102.38;5089758;28;20436;-60
2023/09/21 04:32:38;;;;;;;0.80;0.30;;;;;;;-143.84;86.28;45119.53;5089803;28;20452;-60
2023/09/21 04:35:07;;;;;;;0.80;0.30;;;;;;;-143.84;86.25;45121.44;5089505;28;20489;-60
2023/09/21 04:37:35;;;;;;;0.80;0.30;;;;;;;-143.84;86.20;45123.34;5089908;28;20436;-60
2023/09/21 04:40:05;;;;;;;0.80;0.37;;;;;;;-143.84;86.33;45106.19;5089760;28;20475;-60
2023/09/21 04:42:32;;;;;;;0.80;0.30;;;;;;;-143.84;86.34;45104.28;5089554;28;20628;-60
2023/09/21 04:45:00;;;;;;;0.80;0.37;;;;;;;-143.84;86.28;45121.44;5089474;28;20467;-60
2023/09/21 04:47:28;;;;;;;0.80;0.37;;;;;;;-143.84;86.10;45100.47;5089376;28;20448;-60
2023/09/21 04:49:55;;;;;;;0.80;0.40;;;;;;;-143.84;86.54;45083.34;5089229;28;20439;-60
2023/09/21 04:52:24;;;;;;;0.80;0.30;;;;;;;-143.84;86.57;45090.97;5089579;28;20440;-60
2023/09/21 04:54:52;;;;;;;0.80;0.30;;;;;;;-143.84;84.92;45098.56;5089520;28;20479;-60
2023/09/21 04:57:20;;;;;;;0.80;0.30;;;;;;;-143.84;83.66;45094.78;5089292;28;21028;-60
2023/09/21 04:59:48;;;;;;;0.80;0.30;;;;;;;-143.84;83.40;45098.56;5089177;28;20436;-60
2023/09/21 05:02:15;;;;;;;0.80;0.30;;;;;;;-143.84;82.06;45102.38;5089125;28;20475;-60
2023/09/21 05:04:44;;;;;;;0.80;0.30;;;;;;;-143.84;80.87;45092.88;5089503;28;20908;-60
2023/09/21 05:07:13;;;;;;;0.80;0.30;;;;;;;-143.84;80.93;45079.53;5089123;28;20517;-61
2023/09/21 05:09:41;;;;;;;0.80;0.40;;;;;;;-143.84;79.66;45108.09;5089309;28;20443;-60
2023/09/21 05:12:08;;;;;;;0.80;0.30;;;;;;;-143.84;78.60;45108.09;5089337;28;20435;-61
2023/09/21 05:14:35;;;;;;;0.80;0.30;;;;;;;-143.84;76.88;45083.34;5089198;28;20440;-60
2023/09/21 05:17:02;;;;;;;0.80;0.30;;;;;;;-143.84;75.15;45085.25;5089125;28;20440;-60
2023/09/21 05:19:30;;;;;;;0.80;0.30;;;;;;;-143.84;74.91;45079.53;5089067;28;20494;-60
2023/09/21 05:21:59;;;;;;;0.80;0.30;;;;;;;-143.84;73.13;45041.44;5089039;28;20578;-60
2023/09/21 05:24:26;;;;;;;0.80;0.40;;;;;;;-143.84;71.56;45064.31;5088814;28;20476;-60
2023/09/21 05:26:54;;;;;;;0.80;0.30;;;;;;;-143.84;70.20;45060.50;5089098;28;20941;-60
2023/09/21 05:29:22;;;;;;;0.80;0.30;;;;;;;-143.84;69.69;45054.78;5089006;28;20980;-60
2023/09/21 05:31:49;;;;;;;0.80;0.40;;;;;;;-143.84;68.31;45060.50;5088791;28;20538;-60
2023/09/21 05:34:16;;;;;;;0.83;0.30;;;;;;;-143.84;67.57;45073.81;5088741;28;20451;-60
2023/09/21 05:36:46;;;;;;;0.80;0.30;;;;;;;-143.84;66.30;45047.16;5088718;28;20439;-60
2023/09/21 05:39:16;;;;;;;0.90;0.30;;;;;;;-143.84;66.01;45068.13;5088713;28;20945;-59
2023/09/21 05:41:44;;;;;;;0.90;0.33;;;;;;;-143.84;65.16;45045.25;5089005;28;20510;-59
2023/09/21 05:44:11;;;;;;;0.80;0.30;;;;;;;-143.84;64.56;45037.66;5089133;28;20466;-59
2023/09/21 05:46:39;;;;;;;0.90;0.30;;;;;;;-143.84;62.84;45068.13;5088708;28;20452;-59
2023/09/21 05:49:07;;;;;;;0.90;0.30;;;;;;;-143.84;62.26;45049.06;5088519;28;20454;-60
2023/09/21 05:51:36;;;;;;;0.90;0.30;;;;;;;-143.84;61.89;45041.44;5088894;28;20512;-60
2023/09/21 05:54:04;;;;;;;0.90;0.40;;;;;;;-143.84;62.56;45049.06;5088608;28;20981;-59
2023/09/21 05:56:33;;;;;;;0.90;0.30;;;;;;;-143.84;62.16;45056.69;5091820;28;20524;-59
2023/09/21 05:59:01;;;;;;;0.90;0.30;;;;;;;-143.84;59.55;45041.44;5092818;28;20458;-59
2023/09/21 06:01:31;;;;;;;0.90;0.30;;;;;;;-143.84;58.91;45045.25;5092603;28;20487;-59
2023/09/21 06:03:59;;;;;;;0.90;0.30;;;;;;;-143.84;59.18;45047.16;5092570;28;20929;-60
2023/09/21 06:06:28;;;;;;;0.90;0.30;;;;;;;-143.84;58.04;45037.66;5092929;28;20450;-59
2023/09/21 06:08:57;;;;;;;0.90;0.30;;;;;;;-143.84;57.56;45068.13;5092609;28;20444;-59
2023/09/21 06:11:24;;;;;;;0.90;0.40;;;;;;;-143.84;57.83;45033.84;5092624;28;20519;-59
2023/09/21 06:13:54;;;;;;;0.90;0.30;;;;;;;-143.84;58.62;45028.13;5092662;28;20444;-60
2023/09/21 06:16:21;;;;;;;0.90;0.30;;;;;;;-143.84;57.17;45022.41;5092878;28;20448;-60
2023/09/21 06:18:49;;;;;;;0.90;0.30;;;;;;;-143.84;56.15;45041.44;5092455;28;21011;-60
2023/09/21 06:21:16;;;;;;;0.90;0.30;;;;;;;-143.84;55.47;45012.88;5092385;28;20439;-60
2023/09/21 06:23:44;;;;;;;0.90;0.30;;;;;;;-143.84;56.09;45020.50;5092104;28;20444;-60
2023/09/21 06:26:14;;;;;;;0.90;0.30;;;;;;;-143.84;52.74;45045.25;5092426;28;21033;-60
2023/09/21 06:28:43;;;;;;;0.90;0.37;;;;;;;-143.84;53.36;45026.22;5092152;28;20497;-60
2023/09/21 06:31:12;;;;;;;0.90;0.30;;;;;;;-143.84;54.24;45054.78;5092396;28;20519;-60
2023/09/21 06:33:40;;;;;;;0.90;0.30;;;;;;;-143.84;54.57;45045.25;5092266;28;20455;-60
2023/09/21 06:36:14;;;;;;;0.90;0.30;;;;;;;-143.84;56.22;44997.66;5092527;28;20443;-60
2023/09/21 06:38:42;;;;;;;0.90;0.40;;;;;;;-143.84;55.48;45010.97;5092133;28;21149;-60
2023/09/21 06:41:09;;;;;;;0.90;0.30;;;;;;;-143.84;55.50;45060.50;5091994;28;20479;-60
2023/09/21 06:43:37;;;;;;;0.90;0.30;;;;;;;-143.84;55.87;45033.84;5091613;28;20505;-60
2023/09/21 06:46:05;;;;;;;0.90;0.30;;;;;;;-143.84;53.82;45026.22;5091833;28;20454;-60
2023/09/21 06:48:34;;;;;;;0.90;0.30;;;;;;;-143.84;53.41;45035.75;5092141;28;20857;-60
2023/09/21 06:51:03;;;;;;;0.90;0.30;;;;;;;-143.84;53.69;45030.03;5091856;28;20443;-60
2023/09/21 06:53:30;;;;;;;0.90;0.30;;;;;;;-143.84;52.64;45037.66;5091730;28;20447;-60
2023/09/21 06:55:58;;;;;;;0.90;0.30;;;;;;;-143.84;53.32;45026.22;5091595;28;20439;-60
2023/09/21 06:58:25;;;;;;;0.90;0.30;;;;;;;-143.84;53.26;44999.56;5091604;28;20446;-60
2023/09/21 07:00:52;;;;;;;0.90;0.40;;;;;;;-143.84;54.83;45043.34;5091640;28;20440;-60
2023/09/21 07:03:20;;;;;;;0.90;0.30;;;;;;;-143.84;54.22;45030.03;5091413;28;20475;-58
2023/09/21 07:05:49;;;;;;;0.90;0.30;;;;;;;-143.84;54.92;45010.97;5091696;28;20428;-58
2023/09/21 07:08:17;;;;;;;0.90;0.30;;;;;;;-143.84;53.26;45022.41;5090519;28;20448;-60
2023/09/21 07:10:44;;;;;;;0.90;0.30;;;;;;;-143.84;51.81;45003.38;5091238;28;20448;-60
2023/09/21 07:13:11;;;;;;;0.90;0.30;;;;;;;-143.84;52.65;45026.22;5091314;28;20431;-60
2023/09/21 07:15:39;;;;;;;0.90;0.30;;;;;;;-143.84;51.86;44980.53;5091074;28;20876;-60
2023/09/21 07:18:06;;;;;;;0.90;0.30;;;;;;;-143.84;53.15;45005.28;5090900;28;20487;-60
2023/09/21 07:20:34;;;;;;;0.90;0.30;;;;;;;-143.84;52.16;45026.22;5091256;28;20444;-60
2023/09/21 07:23:03;;;;;;;0.90;0.30;;;;;;;-143.84;51.81;45035.75;5091167;28;20537;-60
2023/09/21 07:25:30;;;;;;;0.90;0.40;;;;;;;-143.84;52.72;45010.97;5091422;28;20448;-60
2023/09/21 07:27:58;;;;;;;0.90;0.30;;;;;;;-143.84;53.52;45030.03;5091064;28;20497;-60
2023/09/21 07:30:26;;;;;;;0.90;0.30;;;;;;;-143.84;53.74;44995.75;5091214;28;20440;-60
2023/09/21 07:32:55;;;;;;;0.90;0.30;;;;;;;-143.84;53.04;45020.50;5090988;28;20444;-60
2023/09/21 07:35:22;;;;;;;0.90;0.60;;;;;;;-143.84;52.39;45009.09;5091089;28;20501;-60
2023/09/21 07:37:50;;;;;;;0.90;0.30;;;;;;;-143.84;52.73;44980.53;5090928;28;21010;-60
2023/09/21 07:40:19;;;;;;;0.90;0.30;;;;;;;-143.84;52.44;45020.50;5091009;28;20440;-60
2023/09/21 07:42:48;;;;;;;0.90;0.30;;;;;;;-143.84;51.95;44999.56;5090774;28;20483;-60
2023/09/21 07:45:16;;;;;;;0.90;0.30;;;;;;;-143.84;51.75;45010.97;5090921;28;20479;-60
2023/09/21 07:47:45;;;;;;;0.90;0.30;;;;;;;-143.84;50.96;45010.97;5090486;28;20440;-60
2023/09/21 07:50:13;;;;;;;0.90;0.40;;;;;;;-143.84;52.45;45012.88;5090146;28;20490;-60
2023/09/21 07:52:40;;;;;;;1.00;0.60;;;;;;;-143.84;52.92;45005.28;5089839;28;20443;-60
2023/09/21 07:55:09;;;;;;;0.90;0.30;;;;;;;-143.84;53.26;45024.31;5090409;28;21026;-60
2023/09/21 07:57:39;;;;;;;0.90;0.40;;;;;;;-143.84;53.69;45009.09;5089880;28;20440;-60
2023/09/21 08:00:09;;;;;;;0.90;0.40;;;;;;;-143.84;55.10;45018.59;5089916;28;20958;-60
2023/09/21 08:02:36;;;;;;;0.90;0.30;;;;;;;-143.84;52.91;45016.69;5090078;28;20476;-60
2023/09/21 08:05:04;;;;;;;0.90;0.30;;;;;;;-143.84;53.78;45007.19;5090543;28;20948;-60
2023/09/21 08:07:33;;;;;;;0.90;0.40;;;;;;;-143.84;52.00;45007.19;5089901;28;20436;-60
2023/09/21 08:10:03;;;;;;;0.90;0.30;;;;;;;-143.84;52.59;45024.31;5090066;28;20444;-60
2023/09/21 08:12:31;;;;;;;0.90;0.30;;;;;;;-143.84;52.44;44988.13;5090377;28;20447;-60
2023/09/21 08:15:00;;;;;;;0.90;0.30;;;;;;;-143.84;51.19;45020.50;5090374;28;20449;-60
2023/09/21 08:17:29;;;;;;;0.90;0.30;;;;;;;-143.84;51.72;44999.56;5089925;28;20542;-60
2023/09/21 08:19:57;;;;;;;0.90;0.30;;;;;;;-143.84;52.64;45005.28;5089576;28;20564;-60
2023/09/21 08:22:26;;;;;;;0.90;0.30;;;;;;;-143.84;50.36;45028.13;5089897;28;20521;-60
2023/09/21 08:24:53;;;;;;;0.90;0.30;;;;;;;-143.84;50.90;45018.59;5090139;28;20454;-60
2023/09/21 08:27:22;;;;;;;0.90;0.30;;;;;;;-143.84;49.24;45003.38;5090217;28;20436;-60
2023/09/21 08:29:49;;;;;;;0.90;0.30;;;;;;;-143.84;51.56;45003.38;5090091;28;20523;-60
2023/09/21 08:32:18;;;;;;;0.90;0.30;;;;;;;-143.84;51.11;45014.78;5089898;28;20438;-60
2023/09/21 08:34:46;;;;;;;0.90;0.30;;;;;;;-143.84;52.27;45012.88;5089637;28;20440;-60
2023/09/21 08:37:13;;;;;;;0.90;0.30;;;;;;;-143.84;52.53;45010.97;5089673;28;20436;-60
2023/09/21 08:39:40;;;;;;;0.90;0.30;;;;;;;-143.84;52.50;45014.78;5089650;28;20436;-60
2023/09/21 08:42:08;;;;;;;0.90;0.30;;;;;;;-143.84;52.48;45007.19;5089655;28;20436;-60
2023/09/21 08:44:38;;;;;;;0.90;0.30;;;;;;;-143.84;50.44;44982.41;5089758;28;20440;-60
2023/09/21 08:47:10;;;;;;;0.90;0.30;;;;;;;-143.84;48.88;45020.50;5089971;28;20444;-60
2023/09/21 08:49:39;;;;;;;0.90;0.40;;;;;;;-143.84;50.96;44991.94;5089470;28;20443;-60
2023/09/21 08:52:09;;;;;;;0.90;0.30;;;;;;;-143.84;52.16;45010.97;5089531;28;20452;-59
2023/09/21 08:54:39;;;;;;;0.90;0.30;;;;;;;-143.84;54.61;45005.28;5089315;28;20945;-60
2023/09/21 08:57:09;;;;;;;0.90;0.30;;;;;;;-143.84;50.98;44986.22;5089546;28;20533;-59
2023/09/21 08:59:40;;;;;;;0.90;0.30;;;;;;;-143.84;51.19;45001.47;5089371;28;20527;-59
2023/09/21 09:02:11;;;;;;;0.90;0.30;;;;;;;-143.84;52.58;45010.97;5089200;28;20498;-59
2023/09/21 09:04:41;;;;;;;0.90;0.40;;;;;;;-143.84;50.40;44991.94;5089517;28;20833;-59
2023/09/21 09:07:08;;;;;;;0.90;0.30;;;;;;;-143.84;51.50;45001.47;5089356;28;20949;-59
2023/09/21 09:09:36;;;;;;;0.90;0.60;;;;;;;-143.84;49.87;44999.56;5088904;28;20440;-59
2023/09/21 09:12:03;;;;;;;0.83;0.30;;;;;;;-143.84;53.82;45003.38;5089273;28;20493;-59
2023/09/21 09:14:30;;;;;;;0.90;0.30;;;;;;;-143.84;51.47;44999.56;5089112;28;20485;-59
2023/09/21 09:16:57;;;;;;;0.90;0.30;;;;;;;-143.84;51.98;45014.78;5089132;28;20483;-60
2023/09/21 09:19:26;;;;;;;0.90;0.30;;;;;;;-143.84;51.87;44999.56;5089139;28;20479;-59
2023/09/21 09:21:56;;;;;;;0.90;0.30;;;;;;;-143.84;48.61;45009.09;5089213;28;20443;-59
2023/09/21 09:24:29;;;;;;;0.90;0.30;;;;;;;-143.84;50.48;44988.13;5089106;28;20502;-59
2023/09/21 09:26:57;;;;;;;0.90;0.40;;;;;;;-143.84;51.30;45001.47;5089362;28;20448;-59
2023/09/21 09:29:25;;;;;;;0.90;0.30;;;;;;;-143.84;52.78;44971.00;5088572;28;20454;-59
2023/09/21 09:31:52;;;;;;;0.90;0.30;;;;;;;-143.84;49.59;44984.31;5088743;28;20855;-59
2023/09/21 09:34:19;;;;;;;0.90;0.30;;;;;;;-143.84;48.17;44978.63;5089168;28;20447;-59
2023/09/21 09:36:49;;;;;;;0.90;0.30;;;;;;;-143.84;50.19;44991.94;5089020;28;20440;-59
2023/09/21 09:39:18;;;;;;;0.90;0.40;;;;;;;-143.84;50.09;44993.84;5089267;28;20436;-59
2023/09/21 09:41:46;;;;;;;0.90;0.30;;;;;;;-143.84;50.63;44991.94;5089157;28;20452;-59
2023/09/21 09:44:19;;;;;;;0.90;0.30;;;;;;;-143.84;51.21;45014.78;5088628;28;20489;-59
2023/09/21 09:46:49;;;;;;;0.90;0.30;;;;;;;-143.84;50.78;45003.38;5088975;28;20937;-59
2023/09/21 09:49:20;;;;;;;0.90;0.30;;;;;;;-143.84;51.78;45010.97;5088539;28;20543;-59
2023/09/21 09:51:48;;;;;;;0.90;0.30;;;;;;;-143.84;52.75;45022.41;5088809;28;20440;-59
2023/09/21 09:54:16;;;;;;;0.90;0.30;;;;;;;-143.84;51.67;45009.09;5089109;28;20552;-59
2023/09/21 09:56:44;;;;;;;0.90;0.40;;;;;;;-143.84;51.46;45014.78;5088921;28;20448;-59
2023/09/21 09:59:12;;;;;;;0.90;0.40;;;;;;;-143.84;50.55;45003.38;5088556;28;20527;-59
2023/09/21 10:01:41;;;;;;;0.90;0.30;;;;;;;-143.84;49.76;45003.38;5088534;28;20463;-59
2023/09/21 10:04:08;;;;;;;0.90;0.30;;;;;;;-143.84;51.71;44984.31;5088359;28;20486;-59
2023/09/21 10:06:36;;;;;;;0.90;0.30;;;;;;;-143.84;49.88;44969.09;5088317;28;20513;-59
2023/09/21 10:09:10;;;;;;;0.90;0.30;;;;;;;-143.84;51.33;45018.59;5088168;28;20444;-59
2023/09/21 10:11:42;;;;;;;0.90;0.30;;;;;;;-143.84;50.02;44990.03;5088378;28;20440;-59
2023/09/21 10:14:14;;;;;;;0.90;0.30;;;;;;;-143.84;50.37;44997.66;5088085;28;21138;-59
2023/09/21 10:16:49;;;;;;;0.90;0.30;;;;;;;-143.84;51.60;44997.66;5088287;28;20941;-59
2023/09/21 10:19:24;;;;;;;0.90;0.30;;;;;;;-143.84;50.95;45007.19;5088172;28;20483;-59
2023/09/21 10:21:54;;;;;;;0.90;0.40;;;;;;;-143.84;51.56;45009.09;5088140;28;20542;-59
2023/09/21 10:24:26;;;;;;;0.90;0.30;;;;;;;-143.84;53.33;44999.56;5088457;28;20857;-59
2023/09/21 10:26:54;;;;;;;0.90;0.50;;;;;;;-143.84;53.22;44980.53;5088423;28;20440;-59
2023/09/21 10:29:29;;;;;;;0.90;0.30;;;;;;;-143.84;52.74;44999.56;5088552;28;20435;-59
2023/09/21 10:32:00;;;;;;;0.90;0.30;;;;;;;-143.84;53.38;45003.38;5088441;28;20496;-59
2023/09/21 10:34:27;;;;;;;0.90;0.30;;;;;;;-143.84;52.10;45005.28;5088368;28;20435;-59
2023/09/21 10:37:00;;;;;;;0.90;0.40;;;;;;;-143.84;52.69;45010.97;5088165;28;20444;-59
2023/09/21 10:39:29;;;;;;;0.90;0.30;;;;;;;-143.84;52.70;45009.09;5088346;28;20436;-59
2023/09/21 10:42:29;;;;;;;0.90;0.30;;;;;;;-143.84;55.33;44993.84;5090067;28;20493;-59
2023/09/21 10:45:02;;;;;;;0.90;0.30;;;;;;;-143.84;55.87;45009.09;5083773;28;20491;-58
2023/09/21 10:47:40;;;;;;;0.90;0.40;;;;;;;-143.84;56.65;45018.59;5091914;28;20447;-59
2023/09/21 10:50:10;;;;;;;0.90;0.30;;;;;;;-143.84;56.57;45045.25;5091634;28;20501;-59
2023/09/21 10:52:41;;;;;;;0.90;0.30;;;;;;;-143.84;58.56;45014.78;5091786;28;20949;-59
2023/09/21 10:55:09;;;;;;;0.90;0.30;;;;;;;-143.84;54.88;45033.84;5091978;28;20463;-59
2023/09/21 10:57:36;;;;;;;0.90;0.30;;;;;;;-143.84;56.48;45033.84;5091939;28;20471;-59
2023/09/21 11:00:08;;;;;;;0.90;0.30;;;;;;;-143.84;60.18;45024.31;5091777;28;20501;-59
2023/09/21 11:02:38;;;;;;;0.90;0.30;;;;;;;-143.84;59.50;45033.84;5091707;28;20440;-59
2023/09/21 11:05:07;;;;;;;0.90;0.30;;;;;;;-143.84;59.89;45001.47;5091321;28;20485;-58
2023/09/21 11:07:36;;;;;;;0.90;0.30;;;;;;;-143.84;59.07;45030.03;5091715;28;20853;-59
2023/09/21 11:10:06;;;;;;;0.90;0.30;;;;;;;-143.84;58.47;44997.66;5091583;28;20454;-59
2023/09/21 11:12:33;;;;;;;0.90;0.30;;;;;;;-143.84;58.55;45012.88;5091408;28;20448;-59
2023/09/21 11:15:03;;;;;;;0.90;0.30;;;;;;;-143.84;59.88;45020.50;5091254;28;20968;-59
2023/09/21 11:17:31;;;;;;;0.90;0.30;;;;;;;-143.84;61.09;45024.31;5091421;28;20456;-59
2023/09/21 11:19:59;;;;;;;0.90;0.30;;;;;;;-143.84;61.50;45035.75;5091226;28;20448;-59
2023/09/21 11:22:26;;;;;;;0.90;0.30;;;;;;;-143.84;61.52;45041.44;5091496;28;20440;-59
2023/09/21 11:24:54;;;;;;;0.90;0.40;;;;;;;-143.84;61.77;45022.41;5091269;28;20526;-59